createdAt,value
2018-12-22T00:03:36.236Z,0.00
2018-12-22T00:06:10.400Z,0.00
2018-12-22T00:08:43.414Z,1.00
2018-12-22T00:11:16.568Z,0.00
2018-12-22T00:13:54.203Z,0.33
2018-12-22T00:16:25.848Z,1.00
2018-12-22T00:18:59.241Z,0.00
2018-12-22T00:21:34.195Z,0.00
2018-12-22T00:24:05.191Z,0.00
2018-12-22T00:26:40.148Z,0.00
2018-12-22T00:29:18.089Z,0.00
2018-12-22T00:31:59.127Z,0.00
2018-12-22T00:34:38.596Z,0.00
2018-12-22T00:37:15.281Z,0.33
2018-12-22T00:39:51.582Z,0.00
2018-12-22T00:42:27.750Z,0.00
2018-12-22T00:45:09.119Z,0.00
2018-12-22T00:47:46.542Z,0.00
2018-12-22T00:50:21.711Z,0.00
2018-12-22T00:52:53.907Z,1.00
2018-12-22T00:55:27.206Z,0.40
2018-12-22T00:57:59.999Z,0.00
2018-12-22T01:00:35.269Z,0.67
2018-12-22T01:03:07.357Z,0.00
2018-12-22T01:05:45.156Z,0.33
2018-12-22T01:08:18.424Z,0.00
2018-12-22T01:10:52.795Z,0.67
2018-12-22T01:13:26.221Z,0.00
2018-12-22T01:15:58.640Z,0.33
2018-12-22T01:18:39.309Z,0.00
2018-12-22T01:21:16.177Z,0.20
2018-12-22T01:23:49.949Z,0.40
2018-12-22T01:26:21.500Z,0.00
2018-12-22T01:28:53.405Z,0.20
2018-12-22T01:31:25.510Z,0.67
2018-12-22T01:33:57.898Z,1.00
2018-12-22T01:36:28.562Z,1.00
2018-12-22T01:39:00.445Z,1.00
2018-12-22T01:41:38.083Z,1.00
2018-12-22T01:44:14.531Z,1.00
2018-12-22T01:46:45.710Z,0.00
2018-12-22T01:49:19.656Z,1.00
2018-12-22T01:51:54.205Z,1.00
2018-12-22T01:54:40.961Z,0.33
2018-12-22T01:57:18.945Z,1.00
2018-12-22T01:59:57.585Z,1.00
2018-12-22T02:02:29.700Z,1.00
2018-12-22T02:05:05.087Z,0.00
2018-12-22T02:07:38.634Z,0.60
2018-12-22T02:10:12.959Z,0.00
2018-12-22T02:12:49.895Z,1.00
2018-12-22T02:15:30.810Z,1.00
2018-12-22T02:18:05.036Z,1.00
2018-12-22T02:20:38.544Z,1.00
2018-12-22T02:23:12.260Z,1.00
2018-12-22T02:25:48.867Z,1.00
2018-12-22T02:28:20.974Z,0.33
2018-12-22T02:30:59.882Z,1.00
2018-12-22T02:36:37.097Z,1.00
2018-12-22T02:39:14.640Z,1.00
2018-12-22T02:41:47.939Z,1.67
2018-12-22T02:44:23.626Z,1.00
2018-12-22T02:46:56.896Z,1.00
2018-12-22T02:49:29.550Z,1.00
2018-12-22T02:52:04.593Z,1.00
2018-12-22T02:57:29.187Z,1.00
2018-12-22T03:00:14.723Z,0.33
2018-12-22T03:03:02.803Z,0.00
2018-12-22T03:08:53.337Z,0.33
2018-12-22T03:14:34.457Z,1.00
2018-12-22T03:17:11.263Z,0.00
2018-12-22T03:19:45.282Z,0.00
2018-12-22T03:22:33.673Z,0.00
2018-12-22T03:32:09.171Z,0.00
2018-12-22T03:34:43.117Z,0.00
2018-12-22T03:37:14.513Z,0.67
2018-12-22T03:39:50.243Z,0.20
2018-12-22T03:42:22.644Z,0.00
2018-12-22T03:44:55.473Z,0.00
2018-12-22T03:47:30.331Z,0.67
2018-12-22T03:50:04.477Z,0.33
2018-12-22T03:52:40.377Z,0.00
2018-12-22T03:55:14.999Z,1.00
2018-12-22T03:57:53.962Z,0.00
2018-12-22T04:00:30.865Z,0.00
2018-12-22T04:03:05.370Z,0.00
2018-12-22T04:05:40.962Z,0.00
2018-12-22T04:08:15.119Z,0.00
2018-12-22T04:10:49.873Z,0.00
2018-12-22T04:13:24.003Z,0.00
2018-12-22T04:15:56.717Z,0.00
2018-12-22T04:18:32.179Z,0.00
2018-12-22T04:21:08.271Z,0.00
2018-12-22T04:23:42.461Z,0.00
2018-12-22T04:26:16.599Z,1.00
2018-12-22T04:28:49.197Z,0.00
2018-12-22T04:31:23.543Z,0.00
2018-12-22T04:33:55.973Z,0.00
2018-12-22T04:36:29.626Z,0.00
2018-12-22T04:39:10.270Z,0.00
2018-12-22T04:41:45.943Z,0.00
2018-12-22T04:44:22.554Z,0.00
2018-12-22T04:46:57.957Z,0.00
2018-12-22T04:49:29.687Z,0.00
2018-12-22T04:52:05.369Z,0.00
2018-12-22T04:54:37.731Z,0.00
2018-12-22T04:57:11.842Z,0.33
2018-12-22T04:59:48.865Z,0.00
2018-12-22T05:02:21.430Z,0.00
2018-12-22T05:04:53.630Z,0.00
2018-12-22T05:07:27.393Z,1.00
2018-12-22T05:10:00.769Z,0.00
2018-12-22T05:12:35.209Z,0.67
2018-12-22T05:15:16.294Z,0.00
2018-12-22T05:17:52.358Z,1.00
2018-12-22T05:20:27.080Z,0.00
2018-12-22T05:22:59.616Z,3.00
2018-12-22T05:25:36.026Z,1.00
2018-12-22T05:28:08.414Z,0.67
2018-12-22T05:30:41.618Z,0.00
2018-12-22T05:33:13.268Z,0.00
2018-12-22T05:35:46.089Z,1.00
2018-12-22T05:38:21.271Z,1.00
2018-12-22T05:40:54.768Z,0.00
2018-12-22T05:43:27.928Z,0.00
2018-12-22T05:46:03.555Z,0.00
2018-12-22T05:48:38.785Z,0.00
2018-12-22T05:51:12.267Z,0.33
2018-12-22T05:53:46.118Z,0.00
2018-12-22T05:56:22.060Z,0.00
2018-12-22T05:58:59.089Z,0.00
2018-12-22T06:01:35.257Z,0.00
2018-12-22T06:04:08.925Z,0.00
2018-12-22T06:06:42.928Z,0.00
2018-12-22T06:09:20.502Z,0.00
2018-12-22T06:11:58.509Z,0.00
2018-12-22T06:14:32.355Z,0.00
2018-12-22T06:17:08.604Z,0.00
2018-12-22T06:19:44.946Z,0.00
2018-12-22T06:22:19.255Z,0.00
2018-12-22T06:24:54.238Z,0.00
2018-12-22T06:27:30.632Z,0.33
2018-12-22T06:30:13.863Z,0.00
2018-12-22T06:32:47.117Z,0.00
2018-12-22T06:35:20.728Z,0.00
2018-12-22T06:37:53.923Z,0.00
2018-12-22T06:40:28.091Z,0.00
2018-12-22T06:43:03.358Z,0.00
2018-12-22T06:45:39.512Z,0.00
2018-12-22T06:48:15.162Z,0.00
2018-12-22T06:50:53.450Z,0.00
2018-12-22T06:53:30.817Z,0.00
2018-12-22T06:56:03.820Z,0.00
2018-12-22T06:58:38.888Z,0.00
2018-12-22T07:01:16.263Z,0.00
2018-12-22T07:03:54.129Z,0.00
2018-12-22T07:06:30.252Z,0.00
2018-12-22T07:09:05.981Z,0.00
2018-12-22T07:11:49.103Z,0.00
2018-12-22T07:14:24.445Z,0.00
2018-12-22T07:17:03.524Z,0.00
2018-12-22T07:19:37.722Z,0.00
2018-12-22T07:22:13.045Z,0.00
2018-12-22T07:24:45.417Z,1.00
2018-12-22T07:27:22.821Z,0.00
2018-12-22T07:29:57.599Z,0.00
2018-12-22T07:32:37.333Z,0.00
2018-12-22T07:35:10.167Z,0.00
2018-12-22T07:37:45.922Z,0.00
2018-12-22T07:40:22.958Z,0.00
2018-12-22T07:43:08.092Z,0.00
2018-12-22T07:45:46.728Z,0.00
2018-12-22T07:48:24.839Z,0.00
2018-12-22T07:50:59.610Z,0.00
2018-12-22T07:53:36.197Z,0.00
2018-12-22T07:56:08.667Z,0.00
2018-12-22T07:58:42.106Z,0.00
2018-12-22T08:01:16.599Z,0.00
2018-12-22T08:03:50.662Z,0.00
2018-12-22T08:06:31.091Z,0.00
2018-12-22T08:09:07.737Z,0.00
2018-12-22T08:11:40.735Z,0.00
2018-12-22T08:14:15.928Z,0.00
2018-12-22T08:16:51.905Z,0.00
2018-12-22T08:19:26.749Z,0.00
2018-12-22T08:22:00.905Z,0.00
2018-12-22T08:24:37.383Z,0.00
2018-12-22T08:27:12.021Z,0.00
2018-12-22T08:29:47.854Z,0.00
2018-12-22T08:32:23.485Z,0.00
2018-12-22T08:35:01.496Z,0.00
2018-12-22T08:37:39.750Z,0.00
2018-12-22T08:40:16.863Z,0.00
2018-12-22T08:42:57.213Z,0.00
2018-12-22T08:45:34.987Z,0.00
2018-12-22T08:48:12.731Z,0.00
2018-12-22T08:50:49.872Z,0.00
2018-12-22T08:53:27.849Z,0.00
2018-12-22T08:56:04.818Z,0.00
2018-12-22T08:58:42.244Z,0.00
2018-12-22T09:01:15.562Z,0.00
2018-12-22T09:03:48.179Z,0.00
2018-12-22T09:06:24.323Z,0.00
2018-12-22T09:08:57.099Z,0.00
2018-12-22T09:11:31.205Z,0.00
2018-12-22T09:14:05.772Z,0.00
2018-12-22T09:16:40.464Z,0.00
2018-12-22T09:19:15.028Z,0.00
2018-12-22T09:21:49.713Z,0.00
2018-12-22T09:24:26.643Z,0.00
2018-12-22T09:27:08.266Z,0.00
2018-12-22T09:29:46.403Z,0.00
2018-12-22T09:32:24.221Z,0.00
2018-12-22T09:34:59.075Z,0.00
2018-12-22T09:37:38.560Z,0.00
2018-12-22T09:40:14.696Z,0.00
2018-12-22T09:42:48.223Z,0.00
2018-12-22T09:45:28.398Z,0.00
2018-12-22T09:48:05.058Z,0.00
2018-12-22T09:50:45.373Z,0.00
2018-12-22T09:53:22.460Z,0.00
2018-12-22T09:56:02.531Z,0.00
2018-12-22T09:58:36.255Z,0.00
2018-12-22T10:01:12.291Z,0.00
2018-12-22T10:03:48.837Z,0.00
2018-12-22T10:06:25.042Z,0.00
2018-12-22T10:08:57.209Z,0.00
2018-12-22T10:11:37.144Z,0.00
2018-12-22T10:14:15.416Z,5.50
2018-12-22T10:16:48.634Z,0.00
2018-12-22T10:19:25.147Z,0.00
2018-12-22T10:22:00.899Z,0.00
2018-12-22T10:24:39.712Z,0.00
2018-12-22T10:27:17.817Z,0.00
2018-12-22T10:29:55.578Z,0.00
2018-12-22T10:32:29.867Z,0.00
2018-12-22T10:35:06.164Z,0.00
2018-12-22T10:37:44.095Z,0.00
2018-12-22T10:40:22.345Z,0.00
2018-12-22T10:42:59.010Z,0.00
2018-12-22T10:45:33.079Z,0.00
2018-12-22T10:48:08.274Z,0.00
2018-12-22T10:50:48.222Z,0.00
2018-12-22T10:53:23.840Z,0.00
2018-12-22T10:56:03.666Z,0.00
2018-12-22T10:58:38.301Z,0.00
2018-12-22T11:01:15.078Z,0.00
2018-12-22T11:03:49.813Z,0.00
2018-12-22T11:06:23.197Z,0.00
2018-12-22T11:08:55.538Z,0.00
2018-12-22T11:11:31.916Z,0.00
2018-12-22T11:14:09.129Z,0.00
2018-12-22T11:16:42.649Z,0.00
2018-12-22T11:19:19.796Z,0.00
2018-12-22T11:21:55.336Z,0.00
2018-12-22T11:24:33.281Z,0.00
2018-12-22T11:27:07.881Z,0.00
2018-12-22T11:29:41.141Z,0.00
2018-12-22T11:32:16.049Z,0.00
2018-12-22T11:34:47.150Z,0.00
2018-12-22T11:37:20.550Z,0.00
2018-12-22T11:40:10.635Z,0.67
2018-12-22T11:42:47.922Z,0.00
2018-12-22T11:45:23.961Z,0.00
2018-12-22T11:48:07.892Z,0.00
2018-12-22T11:50:42.752Z,0.00
2018-12-22T11:53:22.351Z,0.00
2018-12-22T11:55:57.570Z,0.00
2018-12-22T11:58:38.365Z,0.00
2018-12-22T12:01:13.141Z,0.00
2018-12-22T12:03:49.778Z,0.00
2018-12-22T12:06:30.175Z,0.00
2018-12-22T12:09:05.064Z,0.00
2018-12-22T12:11:40.470Z,0.00
2018-12-22T12:14:20.695Z,0.00
2018-12-22T12:17:10.988Z,0.00
2018-12-22T12:19:49.423Z,0.00
2018-12-22T12:22:25.497Z,0.00
2018-12-22T12:24:59.716Z,0.00
2018-12-22T12:27:34.468Z,0.00
2018-12-22T12:30:14.263Z,0.00
2018-12-22T12:32:48.014Z,0.00
2018-12-22T12:35:24.719Z,0.00
2018-12-22T12:38:02.635Z,1.00
2018-12-22T12:40:45.445Z,0.00
2018-12-22T12:43:21.540Z,0.00
2018-12-22T12:46:01.318Z,0.00
2018-12-22T12:48:38.323Z,0.33
2018-12-22T12:51:12.116Z,0.00
2018-12-22T12:53:50.478Z,0.00
2018-12-22T12:56:25.722Z,0.00
2018-12-22T12:59:03.233Z,0.00
2018-12-22T13:01:39.686Z,0.00
2018-12-22T13:04:14.822Z,0.00
2018-12-22T13:06:52.446Z,0.00
2018-12-22T13:09:25.664Z,0.00
2018-12-22T13:12:00.714Z,0.00
2018-12-22T13:14:41.912Z,0.00
2018-12-22T13:17:20.612Z,0.00
2018-12-22T13:19:58.635Z,0.00
2018-12-22T13:22:38.496Z,0.00
2018-12-22T13:25:11.020Z,0.00
2018-12-22T13:27:45.458Z,0.00
2018-12-22T13:30:28.354Z,0.00
2018-12-22T13:33:01.699Z,0.00
2018-12-22T13:35:35.922Z,0.00
2018-12-22T13:38:10.449Z,0.00
2018-12-22T13:40:46.814Z,0.00
2018-12-22T13:43:23.601Z,0.00
2018-12-22T13:46:01.790Z,0.00
2018-12-22T13:48:34.892Z,0.00
2018-12-22T13:51:11.226Z,0.00
2018-12-22T13:53:47.846Z,0.00
2018-12-22T13:56:22.239Z,0.00
2018-12-22T13:59:01.958Z,0.33
2018-12-22T14:01:39.982Z,0.00
2018-12-22T14:04:17.090Z,0.00
2018-12-22T14:06:54.417Z,0.33
2018-12-22T14:09:33.159Z,0.00
2018-12-22T14:12:11.253Z,0.00
2018-12-22T14:14:45.291Z,0.00
2018-12-22T14:17:27.718Z,0.00
2018-12-22T14:20:13.738Z,0.00
2018-12-22T14:22:53.554Z,0.00
2018-12-22T14:25:36.062Z,0.00
2018-12-22T14:28:14.486Z,0.00
2018-12-22T14:30:48.978Z,0.00
2018-12-22T14:33:26.385Z,0.00
2018-12-22T14:36:08.523Z,0.00
2018-12-22T14:38:45.755Z,0.00
2018-12-22T14:41:22.483Z,0.00
2018-12-22T14:44:01.481Z,0.00
2018-12-22T14:46:36.368Z,0.00
2018-12-22T14:49:12.428Z,0.00
2018-12-22T14:51:45.234Z,0.00
2018-12-22T14:54:21.725Z,1.00
2018-12-22T14:56:56.901Z,0.00
2018-12-22T15:02:12.563Z,0.67
2018-12-22T15:04:47.891Z,0.00
2018-12-22T15:07:23.328Z,0.00
2018-12-22T15:09:58.292Z,0.00
2018-12-22T15:12:35.587Z,0.00
2018-12-22T15:15:23.205Z,0.00
2018-12-22T15:17:57.708Z,0.00
2018-12-22T15:20:34.612Z,1.00
2018-12-22T15:23:12.065Z,0.00
2018-12-22T15:25:51.746Z,0.00
2018-12-22T15:28:28.146Z,0.00
2018-12-22T15:31:05.622Z,0.00
2018-12-22T15:33:42.024Z,1.00
2018-12-22T15:36:17.289Z,0.00
2018-12-22T15:38:55.455Z,0.00
2018-12-22T15:41:32.416Z,0.00
2018-12-22T15:44:07.706Z,0.00
2018-12-22T15:46:44.826Z,0.00
2018-12-22T15:49:23.418Z,0.00
2018-12-22T15:52:02.233Z,0.00
2018-12-22T15:54:37.913Z,0.00
2018-12-22T15:57:13.266Z,0.00
2018-12-22T15:59:48.639Z,0.00
2018-12-22T16:02:24.686Z,0.00
2018-12-22T16:05:01.718Z,0.00
2018-12-22T16:07:40.265Z,0.00
2018-12-22T16:10:17.641Z,1.00
2018-12-22T16:12:50.689Z,0.00
2018-12-22T16:15:26.457Z,3.00
2018-12-22T16:18:04.247Z,1.00
2018-12-22T16:20:41.341Z,5.00
2018-12-22T16:23:14.594Z,5.00
2018-12-22T16:25:49.750Z,1.00
2018-12-22T16:28:29.436Z,1.00
2018-12-22T16:31:10.679Z,0.00
2018-12-22T16:33:44.466Z,0.67
2018-12-22T16:36:21.041Z,0.33
2018-12-22T16:38:57.211Z,1.00
2018-12-22T16:41:37.762Z,1.67
2018-12-22T16:44:18.368Z,1.00
2018-12-22T16:46:55.684Z,0.00
2018-12-22T16:49:30.104Z,1.00
2018-12-22T16:52:06.596Z,0.00
2018-12-22T16:54:40.202Z,1.00
2018-12-22T16:57:18.416Z,0.00
2018-12-22T16:59:54.825Z,0.00
2018-12-22T17:02:41.311Z,0.67
2018-12-22T17:05:19.144Z,0.00
2018-12-22T17:07:58.874Z,1.00
2018-12-22T17:10:40.316Z,4.33
2018-12-22T17:13:20.301Z,1.00
2018-12-22T17:18:51.920Z,1.00
2018-12-22T17:21:31.811Z,3.00
2018-12-22T17:24:17.914Z,1.67
2018-12-22T17:26:54.522Z,0.67
2018-12-22T17:29:36.090Z,1.00
2018-12-22T17:32:08.369Z,0.67
2018-12-22T17:34:44.614Z,0.00
2018-12-22T17:37:23.806Z,1.00
2018-12-22T17:39:59.801Z,1.00
2018-12-22T17:42:37.069Z,3.50
2018-12-22T17:45:15.595Z,1.00
2018-12-22T17:47:48.772Z,2.33
2018-12-22T17:50:35.549Z,1.00
2018-12-22T17:53:17.930Z,1.00
2018-12-22T17:55:57.360Z,1.00
2018-12-22T17:58:32.684Z,3.00
2018-12-22T18:01:07.223Z,1.50
2018-12-22T18:03:43.769Z,3.00
2018-12-22T18:06:24.727Z,1.00
2018-12-22T18:08:57.402Z,1.00
2018-12-22T18:11:30.231Z,1.00
2018-12-22T18:14:05.958Z,3.00
2018-12-22T18:16:37.925Z,1.00
2018-12-22T18:19:13.215Z,0.67
2018-12-22T18:21:50.971Z,3.00
2018-12-22T18:24:30.738Z,3.67
2018-12-22T18:27:08.274Z,1.00
2018-12-22T18:29:45.329Z,1.00
2018-12-22T18:32:23.276Z,3.00
2018-12-22T18:34:56.627Z,1.00
2018-12-22T18:37:33.230Z,1.00
2018-12-22T18:40:13.277Z,3.00
2018-12-22T18:42:53.208Z,5.00
2018-12-22T18:45:30.308Z,3.00
2018-12-22T18:48:07.133Z,3.00
2018-12-22T18:50:45.567Z,1.00
2018-12-22T18:53:17.861Z,1.00
2018-12-22T18:55:50.120Z,3.00
2018-12-22T18:58:24.127Z,3.00
2018-12-22T19:00:59.604Z,5.00
2018-12-22T19:03:44.766Z,3.00
2018-12-22T19:06:18.422Z,3.50
2018-12-22T19:08:56.400Z,3.00
2018-12-22T19:11:29.379Z,3.00
2018-12-22T19:14:10.033Z,1.00
2018-12-22T19:16:45.350Z,5.67
2018-12-22T19:19:26.083Z,5.00
2018-12-22T19:22:04.377Z,2.33
2018-12-22T19:24:43.963Z,3.00
2018-12-22T19:27:22.478Z,1.67
2018-12-22T19:30:00.322Z,3.00
2018-12-22T19:32:39.262Z,3.00
2018-12-22T19:35:16.814Z,1.00
2018-12-22T19:37:53.644Z,1.00
2018-12-22T19:40:25.825Z,3.00
2018-12-22T19:43:02.447Z,3.00
2018-12-22T19:45:41.206Z,3.00
2018-12-22T19:48:19.030Z,5.00
2018-12-22T19:50:58.843Z,3.00
2018-12-22T19:53:36.195Z,3.00
2018-12-22T19:56:13.830Z,3.00
2018-12-22T19:58:52.293Z,5.00
2018-12-22T20:01:26.075Z,3.00
2018-12-22T20:04:09.300Z,5.00
2018-12-22T20:06:47.385Z,5.00
2018-12-22T20:09:26.309Z,5.00
2018-12-22T20:12:02.834Z,5.67
2018-12-22T20:14:42.238Z,3.00
2018-12-22T20:17:18.769Z,1.67
2018-12-22T20:19:56.910Z,3.00
2018-12-22T20:22:32.367Z,3.00
2018-12-22T20:25:11.826Z,2.33
2018-12-22T20:27:47.717Z,3.00
2018-12-22T20:30:31.039Z,3.00
2018-12-22T20:33:16.544Z,1.00
2018-12-22T20:35:51.172Z,1.00
2018-12-22T20:38:28.436Z,1.00
2018-12-22T20:43:44.870Z,1.00
2018-12-22T20:49:08.133Z,1.00
2018-12-22T20:54:31.977Z,0.67
2018-12-22T20:57:11.647Z,1.00
2018-12-22T20:59:50.165Z,1.00
2018-12-22T21:02:27.548Z,3.00
2018-12-22T21:07:46.312Z,1.00
2018-12-22T21:10:26.438Z,3.00
2018-12-22T21:13:07.235Z,1.00
2018-12-22T21:15:47.405Z,2.33
2018-12-22T21:18:33.619Z,1.00
2018-12-22T21:21:24.793Z,1.40
2018-12-22T21:24:02.243Z,3.00
2018-12-22T21:26:42.480Z,1.00
2018-12-22T21:32:02.484Z,3.00
2018-12-22T21:34:43.072Z,1.00
2018-12-22T21:37:19.545Z,3.00
2018-12-22T21:39:59.220Z,1.00
2018-12-22T21:42:33.869Z,1.00
2018-12-22T21:45:17.490Z,3.00
2018-12-22T21:53:31.602Z,2.67
2018-12-22T21:56:08.281Z,1.00
2018-12-22T21:58:55.747Z,1.40
2018-12-22T22:01:29.230Z,1.00
2018-12-22T22:04:08.070Z,1.67
2018-12-22T22:06:45.818Z,1.00
2018-12-22T22:09:22.296Z,0.33
2018-12-22T22:12:06.252Z,1.00
2018-12-22T22:14:43.769Z,2.33
2018-12-22T22:17:22.936Z,1.67
2018-12-22T22:19:59.429Z,1.00
2018-12-22T22:22:42.040Z,1.00
2018-12-22T22:25:18.999Z,1.00
2018-12-22T22:27:52.981Z,1.00
2018-12-22T22:30:32.312Z,1.00
2018-12-22T22:33:11.682Z,1.00
2018-12-22T22:35:49.661Z,1.00
2018-12-22T22:41:06.117Z,1.00
2018-12-22T22:43:39.984Z,1.00
2018-12-22T22:46:15.359Z,1.00
2018-12-22T22:48:53.778Z,0.33
2018-12-22T22:54:12.724Z,0.80
2018-12-22T22:56:50.168Z,1.00
2018-12-22T22:59:29.394Z,1.00
2018-12-22T23:02:08.448Z,1.00
2018-12-22T23:04:54.325Z,1.00
2018-12-22T23:07:35.915Z,1.00
2018-12-22T23:10:13.386Z,1.00
2018-12-22T23:12:51.170Z,1.00
2018-12-22T23:15:27.599Z,0.33
2018-12-22T23:18:01.542Z,1.00
2018-12-22T23:20:40.235Z,1.00
2018-12-22T23:23:13.814Z,1.00
2018-12-22T23:25:49.087Z,2.33
2018-12-22T23:28:23.366Z,1.00
2018-12-22T23:31:00.263Z,1.00
2018-12-22T23:33:34.034Z,1.00
2018-12-22T23:36:12.846Z,3.00
2018-12-22T23:38:45.998Z,1.00
2018-12-22T23:41:19.817Z,2.33
2018-12-22T23:43:55.091Z,1.00
2018-12-22T23:46:27.393Z,1.00
2018-12-22T23:49:02.570Z,2.33
2018-12-22T23:51:38.743Z,2.33
2018-12-22T23:54:15.172Z,1.00
2018-12-22T23:56:50.118Z,0.67
2018-12-22T23:59:23.715Z,1.67
